Weather at Divci Airport

Public forecast

Using degrees Celsius for public forecast. Weather courtesy of forecast.io.

Closest aviation weather report (METAR) to Divci Airport

Report is more than 6 hours old.

Closest report is Belgrade Nikola Tesla Airport, 33.6 nm (62.2 km) NNE. Retrieved 2022/09/17 19:00 UTC (18 days ago):

LYBE 171900Z 32011KT 9999 -RA SCT013 BKN027 11/10 Q1006 NOSIG

Closest aviation forecast (TAF) to Divci Airport

Forecast is more than 12 hours old.

Closest forecast is Belgrade Nikola Tesla Airport, 33.6 nm (62.2 km) NNE. Retrieved 2022/09/17 18:23 UTC (18 days ago):

TAF LYBE 171700Z 1718/1818 33015KT 9999 SCT008 BKN027 TX17/1812Z TN09/1804Z TEMPO 1718/1724 32017G27KT 4000 RA BKN005 BKN025 BECMG 1814/1816 16005KT